createdAt,value
2023-03-20T00:01:22.127Z,7.38
2023-03-20T00:06:51.533Z,5.35
2023-03-20T00:12:15.786Z,6.82
2023-03-20T00:17:43.477Z,6.32
2023-03-20T00:23:08.903Z,6.60
2023-03-20T00:28:40.833Z,6.93
2023-03-20T00:34:08.086Z,7.35
2023-03-20T00:39:35.049Z,7.38
2023-03-20T00:45:03.449Z,7.32
2023-03-20T00:50:27.078Z,7.00
2023-03-20T00:55:57.432Z,7.03
2023-03-20T01:01:20.264Z,6.95
2023-03-20T01:06:49.220Z,7.45
2023-03-20T01:12:19.388Z,7.73
2023-03-20T01:17:41.743Z,7.03
2023-03-20T01:23:10.617Z,7.03
2023-03-20T01:28:35.882Z,7.28
2023-03-20T01:34:04.828Z,7.75
2023-03-20T01:39:30.287Z,7.22
2023-03-20T01:44:56.420Z,8.43
2023-03-20T01:50:26.833Z,8.50
2023-03-20T01:56:10.131Z,7.68
2023-03-20T02:01:46.760Z,7.72
2023-03-20T02:07:14.768Z,8.70
2023-03-20T02:12:48.467Z,10.32
2023-03-20T02:18:21.698Z,9.82
2023-03-20T02:24:02.052Z,9.27
2023-03-20T02:30:00.063Z,9.40
2023-03-20T02:35:41.645Z,9.07
2023-03-20T02:41:12.783Z,8.23
2023-03-20T02:46:47.426Z,8.82
2023-03-20T02:52:19.554Z,9.30
2023-03-20T02:57:46.177Z,9.40
2023-03-20T03:03:11.552Z,8.60
2023-03-20T03:08:38.510Z,8.93
2023-03-20T03:14:03.431Z,9.40
2023-03-20T03:19:28.121Z,9.50
2023-03-20T03:24:56.898Z,10.75
2023-03-20T03:30:26.024Z,10.43
2023-03-20T03:36:01.713Z,12.48
2023-03-20T03:41:32.804Z,11.57
2023-03-20T03:47:03.991Z,10.13
2023-03-20T03:52:32.966Z,11.98
2023-03-20T03:58:05.813Z,10.82
2023-03-20T04:03:39.121Z,10.85
2023-03-20T04:09:02.609Z,10.88
2023-03-20T04:14:30.877Z,10.77
2023-03-20T04:19:54.794Z,12.57
2023-03-20T04:25:24.810Z,11.02
2023-03-20T04:30:53.380Z,10.02
2023-03-20T04:36:48.763Z,10.55
2023-03-20T04:42:12.986Z,10.48
2023-03-20T04:47:37.845Z,11.05
2023-03-20T04:53:03.241Z,10.52
2023-03-20T04:58:32.458Z,10.25
2023-03-20T05:04:00.740Z,10.32
2023-03-20T05:09:29.714Z,11.40
2023-03-20T05:15:01.287Z,10.77
2023-03-20T05:20:49.936Z,11.45
2023-03-20T05:26:29.921Z,12.30
2023-03-20T05:32:24.978Z,12.27
2023-03-20T05:38:07.571Z,12.45
2023-03-20T05:43:40.525Z,12.45
2023-03-20T05:49:27.702Z,13.23
2023-03-20T05:55:17.921Z,11.70
2023-03-20T06:00:55.874Z,13.00
2023-03-20T06:06:49.419Z,13.25
2023-03-20T06:12:14.454Z,11.85
2023-03-20T06:17:45.559Z,11.18
2023-03-20T06:23:15.664Z,12.75
2023-03-20T06:28:41.929Z,11.65
2023-03-20T06:34:11.577Z,13.38
2023-03-20T06:39:45.600Z,13.00
2023-03-20T06:45:13.330Z,13.35
2023-03-20T06:50:52.634Z,12.70
2023-03-20T06:56:18.126Z,11.68
2023-03-20T07:01:43.475Z,11.90
2023-03-20T07:07:14.118Z,11.38
2023-03-20T07:12:40.552Z,11.13
2023-03-20T07:18:09.443Z,12.70
2023-03-20T07:23:36.459Z,12.32
2023-03-20T07:29:04.791Z,11.57
2023-03-20T07:34:33.580Z,13.03
2023-03-20T07:40:04.395Z,10.80
2023-03-20T07:45:44.610Z,10.32
2023-03-20T07:51:08.046Z,11.43
2023-03-20T07:56:36.945Z,10.93
2023-03-20T08:01:59.497Z,10.38
2023-03-20T08:07:29.659Z,9.75
2023-03-20T08:13:00.105Z,15.73
2023-03-20T08:18:28.981Z,12.38
2023-03-20T08:23:54.946Z,8.90
2023-03-20T08:29:25.311Z,8.73
2023-03-20T08:34:55.204Z,9.98
2023-03-20T08:40:22.614Z,10.68
2023-03-20T08:45:52.261Z,11.38
2023-03-20T08:51:17.238Z,9.88
2023-03-20T08:56:40.191Z,8.93
2023-03-20T09:02:11.104Z,8.52
2023-03-20T09:07:39.835Z,9.88
2023-03-20T09:13:25.843Z,8.73
2023-03-20T09:18:57.634Z,9.90
2023-03-20T09:24:20.862Z,10.00
2023-03-20T09:29:49.819Z,9.93
2023-03-20T09:35:14.035Z,10.07
2023-03-20T09:46:17.310Z,8.77
2023-03-20T09:57:18.135Z,9.90
2023-03-20T10:02:49.627Z,9.27
2023-03-20T10:08:19.997Z,11.15
2023-03-20T10:14:03.534Z,12.35
2023-03-20T10:19:33.746Z,13.00
2023-03-20T10:24:58.646Z,13.13
2023-03-20T10:30:29.626Z,12.45
2023-03-20T10:36:04.393Z,13.23
2023-03-20T10:41:36.365Z,12.30
2023-03-20T10:47:03.133Z,11.80
2023-03-20T10:52:32.319Z,12.48
2023-03-20T10:58:03.384Z,12.35
2023-03-20T11:03:32.889Z,10.20
2023-03-20T11:09:11.786Z,9.07
2023-03-20T11:14:40.487Z,11.55
2023-03-20T11:20:09.615Z,9.65
2023-03-20T11:25:41.306Z,12.18
2023-03-20T11:31:17.380Z,9.38
2023-03-20T11:36:53.016Z,9.18
2023-03-20T11:42:30.431Z,7.70
2023-03-20T11:47:56.564Z,9.30
2023-03-20T11:53:26.924Z,6.93
2023-03-20T11:58:58.869Z,8.07
2023-03-20T12:09:50.097Z,8.82
2023-03-20T12:15:19.553Z,8.25
2023-03-20T12:20:44.226Z,7.70
2023-03-20T12:26:13.796Z,8.95
2023-03-20T12:31:47.024Z,7.28
2023-03-20T12:37:10.701Z,6.82
2023-03-20T12:42:45.871Z,7.07
2023-03-20T12:48:25.971Z,10.18
2023-03-20T12:54:00.292Z,7.63
2023-03-20T12:59:35.869Z,7.10
2023-03-20T13:05:11.152Z,8.43
2023-03-20T13:10:36.901Z,7.57
2023-03-20T13:16:05.668Z,8.50
2023-03-20T13:21:39.716Z,10.80
2023-03-20T13:27:05.939Z,9.00
2023-03-20T13:32:42.987Z,8.57
2023-03-20T13:38:18.209Z,8.27
2023-03-20T13:43:48.356Z,10.48
2023-03-20T13:49:15.962Z,9.63
2023-03-20T13:54:54.701Z,8.27
2023-03-20T14:00:28.792Z,7.35
2023-03-20T14:05:53.888Z,9.45
2023-03-20T14:11:35.629Z,10.20
2023-03-20T14:17:08.195Z,8.00
2023-03-20T14:22:38.723Z,10.20
2023-03-20T14:28:11.098Z,12.65
2023-03-20T14:33:43.550Z,8.23
2023-03-20T14:39:16.774Z,8.85
2023-03-20T14:44:51.961Z,9.05
2023-03-20T14:50:23.784Z,11.80
2023-03-20T14:55:52.307Z,9.40
2023-03-20T15:01:44.553Z,14.48
2023-03-20T15:07:14.936Z,11.00
2023-03-20T15:12:44.723Z,10.10
2023-03-20T15:18:13.843Z,9.85
2023-03-20T15:23:43.484Z,12.00
2023-03-20T15:29:14.582Z,11.18
2023-03-20T15:34:44.888Z,12.27
2023-03-20T15:40:13.071Z,11.07
2023-03-20T15:45:43.192Z,17.67
2023-03-20T15:51:09.189Z,25.08
2023-03-20T15:56:43.046Z,24.23
2023-03-20T16:02:12.616Z,15.60
2023-03-20T16:07:37.349Z,14.02
2023-03-20T16:13:00.449Z,12.25
2023-03-20T16:18:23.788Z,14.05
2023-03-20T16:23:51.781Z,13.82
2023-03-20T16:29:15.183Z,15.95
2023-03-20T16:34:48.606Z,18.98
2023-03-20T16:40:19.083Z,20.30
2023-03-20T16:45:47.177Z,18.85
2023-03-20T16:51:20.896Z,16.13
2023-03-20T16:56:52.878Z,16.50
2023-03-20T17:02:24.197Z,18.35
2023-03-20T17:07:50.900Z,20.53
2023-03-20T17:13:15.252Z,19.35
2023-03-20T17:18:39.066Z,20.10
2023-03-20T17:24:02.053Z,25.45
2023-03-20T17:29:32.132Z,29.30
2023-03-20T17:35:00.849Z,24.17
2023-03-20T17:40:25.498Z,20.50
2023-03-20T17:51:24.632Z,16.63
2023-03-20T17:56:48.651Z,19.65
2023-03-20T18:02:17.084Z,21.15
2023-03-20T18:07:45.923Z,32.45
2023-03-20T18:13:13.523Z,28.20
2023-03-20T18:18:35.368Z,27.05
2023-03-20T18:24:05.760Z,27.52
2023-03-20T18:29:35.117Z,31.33
2023-03-20T18:34:59.887Z,32.83
2023-03-20T18:40:30.801Z,36.08
2023-03-20T18:46:00.128Z,35.28
2023-03-20T18:51:23.383Z,31.30
2023-03-20T18:56:54.419Z,26.23
2023-03-20T19:02:22.803Z,21.35
2023-03-20T19:07:51.842Z,28.63
2023-03-20T19:13:18.486Z,27.05
2023-03-20T19:18:46.801Z,30.55
2023-03-20T19:24:15.619Z,20.33
2023-03-20T19:29:46.828Z,31.08
2023-03-20T19:35:46.857Z,38.03
2023-03-20T19:41:04.834Z,34.13
2023-03-20T19:46:40.288Z,32.72
2023-03-20T19:52:13.022Z,32.45
2023-03-20T20:03:03.775Z,31.98
2023-03-20T20:08:44.749Z,30.75
2023-03-20T20:14:11.977Z,31.77
2023-03-20T20:19:41.257Z,32.58
2023-03-20T20:25:10.224Z,31.55
2023-03-20T20:30:33.692Z,35.88
2023-03-20T20:36:42.481Z,31.05
2023-03-20T20:41:50.742Z,28.58
2023-03-20T20:47:16.153Z,46.17
2023-03-20T20:52:45.404Z,34.22
2023-03-20T20:58:07.139Z,28.13
2023-03-20T21:03:36.698Z,28.57
2023-03-20T21:09:01.449Z,41.40
2023-03-20T21:14:30.986Z,36.38
2023-03-20T21:19:54.164Z,37.28
2023-03-20T21:25:36.260Z,35.40
2023-03-20T21:31:24.071Z,36.25
2023-03-20T21:36:52.597Z,31.45
2023-03-20T21:42:22.433Z,33.25
2023-03-20T21:48:25.734Z,35.75
2023-03-20T22:05:52.866Z,30.98
2023-03-20T22:17:38.661Z,30.73
2023-03-20T22:40:33.600Z,25.10
2023-03-20T22:45:42.627Z,25.33
2023-03-20T22:51:18.376Z,28.20
2023-03-20T22:56:48.746Z,25.52
2023-03-20T23:02:16.746Z,25.70
2023-03-20T23:07:45.076Z,29.42
2023-03-20T23:13:14.465Z,30.17
2023-03-20T23:18:43.140Z,25.43
2023-03-20T23:24:07.872Z,24.00
2023-03-20T23:29:30.904Z,27.40
2023-03-20T23:34:54.752Z,22.80
2023-03-20T23:40:19.814Z,25.60
2023-03-20T23:45:42.785Z,24.50
2023-03-20T23:51:06.679Z,26.15
2023-03-20T23:56:31.207Z,28.33
